Time;durP1;ratioP1;P1;durP2;ratioP2;P2;SDS_P1;SDS_P2;PMS_P1;PMS_P2;Temp;Humidity;BMP_temperature;BMP_pressure;BME280_temperature;BME280_humidity;BME280_pressure;Samples;Min_cycle;Max_cycle;Signal;HPM_P1;HPM_P2
2022/04/06 00:00:35;;;;;;;20.45;11.20;;;;;;;10.87;76.90;99191.84;5015678;28;20053;-58
2022/04/06 00:03:03;;;;;;;19.73;10.90;;;;;;;10.84;77.19;99186.97;5014931;28;20054;-58
2022/04/06 00:05:30;;;;;;;18.25;10.48;;;;;;;10.88;76.61;99176.75;5015408;28;20057;-56
2022/04/06 00:07:57;;;;;;;22.95;10.13;;;;;;;10.84;75.71;99192.56;5016130;28;20485;-56
2022/04/06 00:10:26;;;;;;;20.92;11.10;;;;;;;10.77;76.54;99195.09;5015397;28;20065;-57
2022/04/06 00:12:53;;;;;;;16.23;9.97;;;;;;;10.75;76.27;99187.09;5015466;28;20053;-56
2022/04/06 00:15:21;;;;;;;19.50;9.98;;;;;;;10.70;76.38;99181.75;5014596;28;20060;-55
2022/04/06 00:17:48;;;;;;;21.15;10.75;;;;;;;10.74;76.27;99181.88;5015122;28;20057;-56
2022/04/06 00:20:16;;;;;;;18.10;10.13;;;;;;;10.70;76.00;99169.78;5015712;28;20046;-53
2022/04/06 00:22:43;;;;;;;21.08;10.07;;;;;;;10.71;76.50;99174.22;5015337;28;20080;-53
2022/04/06 00:25:11;;;;;;;18.15;10.10;;;;;;;10.69;76.32;99173.75;5015103;28;20390;-56
2022/04/06 00:27:40;;;;;;;20.15;10.00;;;;;;;10.73;76.41;99177.44;5015171;28;20307;-57
2022/04/06 00:30:08;;;;;;;17.88;9.23;;;;;;;10.61;75.74;99169.91;5015762;28;20053;-58
2022/04/06 00:32:35;;;;;;;19.35;10.43;;;;;;;10.64;75.75;99165.59;5014644;28;20621;-56
2022/04/06 00:37:47;;;;;;;16.70;9.45;;;;;;;10.80;74.86;99166.56;5017443;28;20056;-58
2022/04/06 00:40:14;;;;;;;21.08;9.88;;;;;;;10.73;75.48;99169.09;5014811;28;20054;-56
2022/04/06 00:42:43;;;;;;;18.10;9.60;;;;;;;10.74;75.92;99168.75;5015149;28;20490;-58
2022/04/06 00:45:10;;;;;;;19.70;9.90;;;;;;;10.73;75.38;99167.13;5014673;28;20065;-58
2022/04/06 00:47:38;;;;;;;18.80;10.10;;;;;;;10.68;75.14;99164.56;5014088;28;20049;-57
2022/04/06 00:50:05;;;;;;;15.35;9.65;;;;;;;10.64;74.98;99168.38;5014793;28;20054;-57
2022/04/06 00:52:36;;;;;;;15.77;9.45;;;;;;;10.63;75.28;99164.81;5014973;28;20054;-57
2022/04/06 00:55:04;;;;;;;15.40;8.73;;;;;;;10.67;74.78;99157.38;5014753;28;20057;-54
2022/04/06 00:57:31;;;;;;;17.52;8.98;;;;;;;10.64;74.30;99157.25;5014796;28;20061;-52
2022/04/06 01:00:00;;;;;;;18.77;8.95;;;;;;;10.62;74.97;99151.22;5014226;28;20060;-57
2022/04/06 01:02:27;;;;;;;15.82;8.35;;;;;;;10.65;74.10;99139.41;4995432;28;20065;-57
2022/04/06 01:11:36;;;;;;;15.65;8.43;;;;;;;10.57;74.54;99136.38;3696526;28;21814;-79
2022/04/06 01:14:06;;;;;;;17.55;8.98;;;;;;;10.60;75.46;99145.19;3681834;28;21839;-79
2022/04/06 01:16:34;;;;;;;17.38;8.30;;;;;;;10.54;74.53;99144.59;3653827;28;22845;-79
2022/04/06 01:19:02;;;;;;;20.45;8.93;;;;;;;10.64;74.32;99134.97;4080760;28;20048;-80
2022/04/06 01:21:29;;;;;;;14.88;8.43;;;;;;;10.61;74.33;99125.34;5056997;28;20052;-80
2022/04/06 01:23:58;;;;;;;15.20;8.98;;;;;;;10.62;74.57;99140.09;5056613;28;20052;-80
2022/04/06 01:26:26;;;;;;;15.73;8.68;;;;;;;10.64;74.33;99133.00;5076561;28;20056;-82
2022/04/06 01:28:54;;;;;;;16.65;9.43;;;;;;;10.57;73.91;99136.38;5075032;28;20412;-81
2022/04/06 01:31:23;;;;;;;13.80;9.07;;;;;;;10.63;75.19;99136.16;5066592;28;20053;-81
2022/04/06 01:33:50;;;;;;;18.58;10.10;;;;;;;10.69;73.91;99135.56;5069539;28;20053;-81
2022/04/06 01:36:18;;;;;;;14.35;8.90;;;;;;;10.62;73.69;99134.50;5074145;28;20056;-81
2022/04/06 01:38:45;;;;;;;15.43;9.55;;;;;;;10.71;73.76;99136.03;5076385;28;20388;-80
2022/04/06 01:41:14;;;;;;;14.88;9.15;;;;;;;10.67;73.38;99137.09;5076011;28;20067;-81
2022/04/06 01:43:43;;;;;;;16.08;9.68;;;;;;;10.62;73.88;99134.50;5061148;28;20420;-81
2022/04/06 01:46:14;;;;;;;17.90;10.65;;;;;;;10.52;73.56;99131.03;5071393;28;20052;-80
2022/04/06 01:52:12;;;;;;;16.70;9.57;;;;;;;10.57;73.78;99138.34;5076986;28;20049;-81
2022/04/06 01:54:14;;;;;;;14.25;8.60;;;;;;;10.50;72.88;99130.56;5077298;28;20079;-80
2022/04/06 01:56:42;;;;;;;14.80;9.13;;;;;;;10.49;73.79;99131.72;5076509;28;20052;-81
2022/04/06 01:59:12;;;;;;;15.02;9.93;;;;;;;10.49;72.92;99130.91;5077735;28;20415;-81
2022/04/06 02:01:39;;;;;;;15.13;9.50;;;;;;;10.44;73.21;99122.81;5063477;28;20057;-81
2022/04/06 02:04:14;;;;;;;15.00;9.98;;;;;;;10.43;73.62;99121.97;5075439;28;20052;-79
2022/04/06 02:06:42;;;;;;;16.55;10.52;;;;;;;10.50;73.09;99122.22;5064274;28;20052;-82
2022/04/06 02:09:13;;;;;;;20.00;10.73;;;;;;;10.46;73.30;99115.72;5048877;28;20049;-80
2022/04/06 02:11:43;;;;;;;16.92;11.18;;;;;;;10.53;73.74;99113.16;5056475;28;20386;-81
2022/04/06 02:14:11;;;;;;;18.60;10.85;;;;;;;10.51;73.15;99109.91;5055719;28;20053;-80
2022/04/06 02:16:38;;;;;;;13.98;9.85;;;;;;;10.42;73.14;99109.22;5056483;28;20071;-79
2022/04/06 02:19:08;;;;;;;17.10;10.45;;;;;;;10.39;73.59;99118.25;5056655;28;20060;-81
2022/04/06 02:21:36;;;;;;;15.38;9.55;;;;;;;10.47;72.86;99117.34;5045489;28;20378;-80
2022/04/06 02:24:04;;;;;;;16.33;9.75;;;;;;;10.34;73.31;99110.13;5036509;28;20414;-80
2022/04/06 02:26:31;;;;;;;16.73;9.73;;;;;;;10.34;72.79;99110.13;5052936;28;20057;-80
2022/04/06 02:29:00;;;;;;;23.02;11.48;;;;;;;10.28;72.99;99103.16;5043977;28;20067;-80
2022/04/06 02:31:28;;;;;;;19.13;10.27;;;;;;;10.36;73.23;99105.03;5046732;28;20048;-80
2022/04/06 02:33:55;;;;;;;18.45;10.43;;;;;;;10.33;73.23;99108.50;5056684;28;20056;-80
2022/04/06 02:36:23;;;;;;;15.70;10.00;;;;;;;10.31;73.13;99099.69;5042336;28;20053;-81
2022/04/06 02:38:50;;;;;;;16.42;10.45;;;;;;;10.35;74.38;99092.28;5035454;28;20532;-79
2022/04/06 02:41:18;;;;;;;16.08;9.75;;;;;;;10.37;72.98;99095.50;5035079;28;20057;-81
2022/04/06 02:43:45;;;;;;;15.48;10.15;;;;;;;10.33;73.55;99089.84;5036453;28;20050;-80
2022/04/06 02:46:14;;;;;;;16.00;9.82;;;;;;;10.31;73.07;99092.16;5048904;28;20057;-79
2022/04/06 02:48:42;;;;;;;13.48;9.25;;;;;;;10.20;72.83;99095.72;5052212;28;20052;-81
2022/04/06 02:51:09;;;;;;;17.60;9.38;;;;;;;10.26;73.24;99089.56;5056646;28;20060;-81
2022/04/06 02:53:40;;;;;;;14.02;9.52;;;;;;;10.23;73.33;99086.69;5038868;28;20046;-79
2022/04/06 02:56:07;;;;;;;13.82;9.30;;;;;;;10.31;73.25;99085.78;5047490;28;20057;-80
2022/04/06 02:58:34;;;;;;;15.38;9.20;;;;;;;10.27;73.17;99090.41;5056125;28;20068;-81
2022/04/06 03:01:03;;;;;;;13.20;9.30;;;;;;;10.29;72.78;99088.91;5044994;28;20412;-81
2022/04/06 03:03:32;;;;;;;15.85;10.25;;;;;;;10.25;73.07;99089.94;5041482;28;20057;-80
2022/04/06 03:05:59;;;;;;;14.13;8.93;;;;;;;10.29;72.35;99086.13;5037199;28;20068;-80
2022/04/06 03:08:29;;;;;;;14.52;9.32;;;;;;;10.23;72.32;99084.72;5042063;28;20386;-81
2022/04/06 03:10:56;;;;;;;13.50;8.10;;;;;;;10.24;72.61;99074.38;5055992;28;20123;-81
2022/04/06 03:13:23;;;;;;;11.35;8.02;;;;;;;10.21;73.38;99077.88;5055682;28;20516;-81
2022/04/06 03:15:51;;;;;;;13.73;7.88;;;;;;;10.24;71.77;99085.50;5046744;28;20408;-81
2022/04/06 03:18:19;;;;;;;10.95;7.70;;;;;;;10.22;72.05;99065.56;5056862;28;20056;-80
2022/04/06 03:20:48;;;;;;;12.57;7.53;;;;;;;10.28;72.05;99084.47;5055975;28;20053;-81
2022/04/06 03:23:15;;;;;;;11.53;7.57;;;;;;;10.32;72.19;99076.28;5054218;28;20060;-79
2022/04/06 03:25:43;;;;;;;12.23;7.60;;;;;;;10.32;71.48;99073.50;5056101;28;20459;-80
2022/04/06 03:28:11;;;;;;;14.50;7.55;;;;;;;10.28;71.28;99086.44;5052624;28;20409;-81
2022/04/06 03:30:38;;;;;;;11.77;7.40;;;;;;;10.27;72.35;99070.91;5041700;28;20041;-81
2022/04/06 03:33:09;;;;;;;9.68;6.85;;;;;;;10.22;71.77;99065.56;5054216;28;20061;-80
2022/04/06 03:35:36;;;;;;;12.10;6.45;;;;;;;10.24;71.51;99063.25;5065486;28;20053;-81
2022/04/06 03:38:05;;;;;;;9.60;5.93;;;;;;;10.13;71.74;99068.47;5080305;28;20045;-81
2022/04/06 03:40:32;;;;;;;10.80;6.40;;;;;;;10.20;71.57;99065.09;5060751;28;20049;-81
2022/04/06 03:43:00;;;;;;;10.20;5.90;;;;;;;10.19;70.85;99063.50;5059878;28;20152;-80
2022/04/06 03:45:27;;;;;;;11.27;5.97;;;;;;;10.29;70.49;99068.56;5059035;28;20485;-80
2022/04/06 03:47:54;;;;;;;12.90;6.00;;;;;;;10.18;70.38;99073.78;5059292;28;20053;-80
2022/04/06 03:50:21;;;;;;;9.88;5.95;;;;;;;10.29;70.82;99065.78;5056093;28;20076;-81
2022/04/06 03:52:49;;;;;;;8.15;5.72;;;;;;;10.26;70.92;99061.75;5058865;28;20072;-81
2022/04/06 03:55:17;;;;;;;11.40;6.03;;;;;;;10.24;70.57;99066.03;5057338;28;20513;-80
2022/04/06 03:57:45;;;;;;;10.90;6.05;;;;;;;10.26;70.74;99066.50;5059454;28;20057;-80
2022/04/06 04:01:01;;;;;;;9.50;6.45;;;;;;;10.29;70.29;99055.53;5060719;28;20053;-80
2022/04/06 04:04:28;;;;;;;9.95;5.57;;;;;;;10.20;69.90;99063.13;5050704;28;20053;-80
2022/04/06 04:14:38;;;;;;;15.93;6.88;;;;;;;10.11;70.51;99063.25;5061196;28;20061;-80
2022/04/06 04:21:31;;;;;;;10.32;5.63;;;;;;;10.07;69.81;99062.31;5047344;28;20061;-81
2022/04/06 04:24:30;;;;;;;;;;;;;;;;;;;;;
2022/04/06 04:27:33;;;;;;;9.40;5.75;;;;;;;10.11;69.76;99054.88;5077919;28;20052;-81
2022/04/06 04:30:46;;;;;;;7.93;6.32;;;;;;;10.15;69.96;99055.81;5064025;28;20049;-81
2022/04/06 04:38:01;;;;;;;;;;;;;;;;;;;;;
2022/04/06 04:41:32;;;;;;;12.30;5.45;;;;;;;10.08;68.41;99050.03;5073079;28;20056;-83
2022/04/06 04:48:42;;;;;;;;;;;;;;;;;;;;;
2022/04/06 04:58:44;;;;;;;7.68;5.03;;;;;;;9.86;68.77;99036.53;4998133;28;20158;-82
2022/04/06 05:08:29;;;;;;;14.70;6.18;;;;;;;9.77;68.79;99039.44;4996817;28;20066;-82
2022/04/06 05:11:23;;;;;;;9.30;5.20;;;;;;;9.73;68.18;99041.28;5047984;28;20053;-82
2022/04/06 05:14:41;;;;;;;6.93;4.57;;;;;;;9.80;67.85;99032.38;5077810;28;20428;-82
2022/04/06 05:18:06;;;;;;;8.88;4.95;;;;;;;9.79;67.06;99031.56;5062443;28;20052;-81
2022/04/06 05:21:26;;;;;;;9.70;4.15;;;;;;;9.82;67.98;99024.50;5076331;28;20053;-82
2022/04/06 05:24:40;;;;;;;8.68;3.60;;;;;;;9.91;66.47;99036.31;5065954;28;20048;-82
2022/04/06 05:37:41;;;;;;;6.85;3.80;;;;;;;9.95;66.71;99037.25;5020877;28;20473;-81
2022/04/06 05:47:44;;;;;;;10.02;3.90;;;;;;;10.05;65.51;99030.44;4922753;29;20063;-85
2022/04/06 06:14:37;;;;;;;10.10;5.20;;;;;;;9.95;64.58;99040.03;5057404;28;20057;-83
2022/04/06 06:17:57;;;;;;;11.38;5.28;;;;;;;10.14;64.23;99039.47;5005313;28;20154;-82
2022/04/06 06:24:12;;;;;;;25.92;11.43;;;;;;;10.18;66.12;99043.19;4980066;28;20058;-82
2022/04/06 06:27:17;;;;;;;;;;;;;;;;;;;;;
2022/04/06 06:30:13;;;;;;;10.77;5.10;;;;;;;10.07;69.25;99045.59;4979655;28;20094;-81
2022/04/06 06:36:32;;;;;;;7.88;3.95;;;;;;;10.29;64.78;99036.03;4967245;28;20055;-83
2022/04/06 06:39:28;;;;;;;9.10;4.15;;;;;;;10.42;64.87;99039.63;4946895;29;20051;-83
2022/04/06 06:42:34;;;;;;;8.32;3.97;;;;;;;10.52;63.96;99030.81;4957197;28;20055;-82
2022/04/06 06:48:59;;;;;;;7.38;3.42;;;;;;;10.40;64.80;99046.72;4993504;28;20057;-83
2022/04/06 06:51:51;;;;;;;5.90;3.20;;;;;;;10.50;63.25;99027.56;4992887;28;20054;-80
2022/04/06 06:54:44;;;;;;;6.75;3.83;;;;;;;10.42;64.68;99013.78;5000633;28;20060;-80
2022/04/06 06:58:17;;;;;;;7.95;3.90;;;;;;;10.44;63.13;99023.41;4990172;28;20061;-83
2022/04/06 07:05:34;;;;;;;7.18;3.45;;;;;;;10.15;63.96;99021.63;5001475;28;20054;-83
2022/04/06 07:08:59;;;;;;;8.18;3.80;;;;;;;10.19;63.31;99013.41;4963132;28;20533;-83
2022/04/06 07:15:23;;;;;;;9.95;4.15;;;;;;;10.34;62.86;99007.16;5009629;28;20738;-82
2022/04/06 07:18:34;;;;;;;6.30;3.40;;;;;;;10.22;63.93;99023.81;5005051;28;21063;-82
2022/04/06 07:25:12;;;;;;;;;;;;;;;;;;;;;
2022/04/06 07:38:11;;;;;;;6.20;3.63;;;;;;;10.29;64.69;98985.94;5045893;28;20049;-83
2022/04/06 07:51:10;;;;;;;8.30;4.25;;;;;;;10.49;64.09;98981.38;5053633;28;20064;-82
2022/04/06 08:10:52;;;;;;;8.20;5.00;;;;;;;10.27;64.57;98982.66;5059344;28;20059;-83
2022/04/06 08:21:05;;;;;;;7.13;4.43;;;;;;;10.39;64.38;98993.00;5059965;28;20053;-82
2022/04/06 08:33:26;;;;;;;6.55;3.92;;;;;;;10.59;63.67;98996.81;5039748;28;20067;-82
2022/04/06 08:36:45;;;;;;;;;;;;;;;;;;;;;
2022/04/06 08:39:48;;;;;;;6.95;3.85;;;;;;;10.64;63.52;98998.53;5048695;28;20041;-81
2022/04/06 08:43:06;;;;;;;6.32;4.43;;;;;;;10.49;63.69;98986.16;5046921;28;20069;-82
2022/04/06 08:49:36;;;;;;;8.07;4.10;;;;;;;10.70;63.33;98991.56;5051069;28;20371;-83
2022/04/06 08:52:53;;;;;;;6.40;3.83;;;;;;;10.72;63.21;98981.69;5048854;28;20068;-82
2022/04/06 08:56:06;;;;;;;6.10;4.00;;;;;;;10.72;63.20;98983.66;5052573;28;20049;-83
2022/04/06 08:59:23;;;;;;;6.28;4.05;;;;;;;10.76;62.97;98974.25;5050063;28;20061;-83
2022/04/06 09:06:22;;;;;;;4.82;3.20;;;;;;;10.85;61.48;98965.75;5045232;28;20053;-84
2022/04/06 09:13:13;;;;;;;3.33;2.65;;;;;;;10.88;61.51;98975.41;5050104;28;20539;-85
2022/04/06 09:22:54;;;;;;;5.00;3.20;;;;;;;10.88;61.15;98987.34;5048730;28;20061;-84
2022/04/06 09:36:57;;;;;;;;;;;;;;;;;;;;;
2022/04/06 09:43:54;;;;;;;4.82;2.05;;;;;;;11.17;56.34;98974.22;5039413;28;20053;-83
2022/04/06 10:00:07;;;;;;;3.40;2.03;;;;;;;12.07;53.15;98929.94;5036092;28;20408;-81
2022/04/06 10:02:37;;;;;;;5.03;2.50;;;;;;;12.28;53.28;98940.00;5041979;28;20076;-82
2022/04/06 10:05:05;;;;;;;3.90;2.10;;;;;;;12.38;52.78;98953.41;5067219;28;20052;-82
2022/04/06 10:07:34;;;;;;;4.13;2.08;;;;;;;12.41;52.42;98938.72;5065103;28;20048;-83
2022/04/06 10:10:02;;;;;;;5.55;2.08;;;;;;;12.55;51.55;98933.44;5068179;28;20048;-83
2022/04/06 10:12:30;;;;;;;6.40;2.15;;;;;;;12.46;51.49;98954.38;5052297;28;20065;-83
2022/04/06 10:15:00;;;;;;;6.40;2.15;;;;;;;12.23;52.45;98929.13;5063094;28;20052;-81
2022/04/06 10:17:29;;;;;;;4.00;1.98;;;;;;;12.30;52.55;98932.06;5062920;28;20288;-80
2022/04/06 10:20:08;;;;;;;4.53;2.20;;;;;;;12.06;52.83;98964.63;5063680;28;20048;-83
2022/04/06 10:22:45;;;;;;;6.18;1.98;;;;;;;11.77;53.21;98949.94;5062425;28;20071;-78
2022/04/06 10:25:20;;;;;;;7.07;2.38;;;;;;;11.57;54.26;98943.47;5065893;28;20049;-78
2022/04/06 10:27:53;;;;;;;4.57;2.00;;;;;;;11.69;54.04;98952.91;5069485;28;20060;-78
2022/04/06 10:30:23;;;;;;;5.43;1.98;;;;;;;11.62;54.65;98950.75;5059432;28;20041;-79
2022/04/06 10:32:52;;;;;;;4.03;2.17;;;;;;;11.61;54.51;98942.72;5066387;28;20049;-80
2022/04/06 10:35:26;;;;;;;7.10;2.20;;;;;;;11.72;54.41;98936.25;5063754;28;20071;-80
2022/04/06 10:38:09;;;;;;;8.93;2.45;;;;;;;11.78;54.91;98945.97;5057046;28;20052;-80
2022/04/06 10:40:59;;;;;;;5.97;2.10;;;;;;;11.89;54.74;98946.28;5067253;28;20052;-79
2022/04/06 10:43:52;;;;;;;4.65;2.58;;;;;;;11.92;53.83;98941.94;5059838;28;20500;-78
2022/04/06 10:46:34;;;;;;;4.78;2.45;;;;;;;11.81;54.47;98938.88;5058387;28;20049;-79
2022/04/06 10:49:13;;;;;;;4.15;2.25;;;;;;;11.56;54.87;98954.97;5065038;28;20534;-79
2022/04/06 10:51:46;;;;;;;5.07;2.60;;;;;;;11.49;55.47;98941.66;5064699;28;20045;-79
2022/04/06 10:54:41;;;;;;;4.65;2.47;;;;;;;11.51;55.46;98935.72;5059335;28;20045;-79
2022/04/06 10:57:09;;;;;;;3.80;2.72;;;;;;;11.57;55.07;98929.50;5073955;28;20492;-78
2022/04/06 10:59:37;;;;;;;5.15;2.72;;;;;;;11.32;55.96;98947.56;5064148;28;20418;-80
2022/04/06 11:02:23;;;;;;;6.50;2.85;;;;;;;11.25;55.80;98939.81;5076664;28;20055;-79
2022/04/06 11:04:54;;;;;;;5.22;2.90;;;;;;;11.37;56.07;98925.78;5075647;28;20044;-80
2022/04/06 11:10:29;;;;;;;4.65;2.80;;;;;;;11.56;55.38;98919.50;5078261;28;20075;-80
2022/04/06 11:13:01;;;;;;;4.53;3.05;;;;;;;11.44;55.88;98913.22;5076032;28;20052;-80
2022/04/06 11:15:41;;;;;;;3.55;3.17;;;;;;;11.53;55.47;98917.47;5075711;28;20044;-81
2022/04/06 11:18:46;;;;;;;7.88;3.53;;;;;;;11.64;55.77;98914.94;5075423;28;20049;-80
2022/04/06 11:21:15;;;;;;;7.45;3.63;;;;;;;11.57;55.89;98914.78;5075771;28;20048;-79
2022/04/06 11:23:43;;;;;;;5.95;2.92;;;;;;;11.74;55.36;98896.88;5075153;28;20051;-80
2022/04/06 11:26:11;;;;;;;6.55;3.40;;;;;;;11.72;55.42;98927.09;5076312;28;20045;-80
2022/04/06 11:28:39;;;;;;;5.15;3.42;;;;;;;11.50;56.14;98915.38;5065456;28;20063;-80
2022/04/06 11:31:07;;;;;;;7.30;3.47;;;;;;;11.54;56.34;98921.84;5068421;28;20057;-80
2022/04/06 11:33:44;;;;;;;4.85;3.42;;;;;;;11.46;57.05;98905.31;5077151;28;20049;-81
2022/04/06 11:36:13;;;;;;;6.25;3.65;;;;;;;11.43;56.97;98904.06;5074377;28;20052;-80
2022/04/06 11:38:43;;;;;;;5.75;3.53;;;;;;;11.68;56.57;98901.91;5069337;28;20390;-80
2022/04/06 11:41:10;;;;;;;7.80;3.70;;;;;;;11.66;57.08;98901.44;5068655;28;20056;-79
2022/04/06 11:43:40;;;;;;;5.43;3.85;;;;;;;11.87;56.67;98892.78;5075554;28;20048;-80
2022/04/06 11:46:07;;;;;;;5.57;3.38;;;;;;;11.88;57.00;98900.00;5075948;28;20059;-81
2022/04/06 11:48:42;;;;;;;6.10;3.38;;;;;;;11.87;57.08;98912.31;5070861;28;20057;-81
2022/04/06 11:51:10;;;;;;;7.55;3.75;;;;;;;11.73;57.45;98904.41;5070870;28;20062;-83
2022/04/06 11:53:37;;;;;;;9.43;3.72;;;;;;;11.85;57.42;98900.72;5072517;28;20051;-82
2022/04/06 11:56:06;;;;;;;5.75;3.97;;;;;;;11.69;57.49;98892.34;5064071;28;20057;-83
2022/04/06 11:58:36;;;;;;;6.00;4.15;;;;;;;11.66;58.05;98879.13;5068084;28;20052;-84
2022/04/06 12:01:06;;;;;;;5.18;4.18;;;;;;;11.40;58.39;98882.44;5071280;28;20048;-84
2022/04/06 12:03:36;;;;;;;8.05;4.80;;;;;;;11.67;58.24;98874.34;5064416;28;20053;-83
2022/04/06 12:06:05;;;;;;;9.35;4.88;;;;;;;11.52;58.83;98878.78;5067308;28;20425;-83
2022/04/06 12:08:36;;;;;;;6.78;4.28;;;;;;;11.68;58.32;98890.75;5052021;28;20061;-81
2022/04/06 12:11:03;;;;;;;4.95;4.45;;;;;;;11.33;59.68;98910.94;5071855;28;20059;-81
2022/04/06 12:13:34;;;;;;;7.05;5.30;;;;;;;11.28;59.86;98886.16;5069027;28;20607;-80
2022/04/06 12:16:02;;;;;;;8.70;4.85;;;;;;;11.06;60.66;98890.31;5071833;28;20060;-81
2022/04/06 12:18:30;;;;;;;6.00;4.60;;;;;;;11.40;60.84;98879.66;5065368;28;20103;-82
2022/04/06 12:20:59;;;;;;;5.35;4.63;;;;;;;11.45;60.34;98859.88;5071702;28;20053;-81
2022/04/06 12:23:31;;;;;;;5.63;4.28;;;;;;;11.52;60.82;98865.63;5068431;28;20402;-80
2022/04/06 12:26:10;;;;;;;5.60;4.35;;;;;;;11.48;60.70;98863.94;5068719;28;20063;-80
2022/04/06 12:28:39;;;;;;;6.38;4.10;;;;;;;11.63;61.15;98877.06;5071716;28;20059;-81
2022/04/06 12:31:08;;;;;;;8.68;4.00;;;;;;;11.51;61.67;98868.81;5064466;28;20056;-81
2022/04/06 12:33:41;;;;;;;7.22;4.20;;;;;;;11.23;62.99;98863.28;5066622;28;20057;-83
2022/04/06 12:36:16;;;;;;;5.18;4.30;;;;;;;11.04;63.81;98864.00;5063898;28;20060;-82
2022/04/06 12:38:57;;;;;;;6.30;4.40;;;;;;;11.31;63.19;98870.69;5064271;28;20053;-80
2022/04/06 12:41:25;;;;;;;4.45;4.05;;;;;;;11.17;63.38;98860.78;5065749;28;20389;-83
2022/04/06 12:43:54;;;;;;;5.80;3.78;;;;;;;11.18;63.52;98858.78;5063129;28;20444;-81
2022/04/06 12:46:49;;;;;;;8.38;3.67;;;;;;;11.02;63.75;98869.09;5068100;28;20059;-80
2022/04/06 12:49:22;;;;;;;5.82;3.83;;;;;;;11.05;64.04;98854.47;5062218;28;20052;-81
2022/04/06 12:52:04;;;;;;;6.72;3.95;;;;;;;11.23;64.27;98861.31;5074843;28;20048;-81
2022/04/06 12:54:40;;;;;;;4.80;3.70;;;;;;;11.26;64.41;98851.44;5070026;28;20063;-82
2022/04/06 12:57:18;;;;;;;6.28;3.75;;;;;;;10.96;65.20;98858.25;5064737;28;20048;-83
2022/04/06 12:59:56;;;;;;;4.65;3.63;;;;;;;11.05;64.24;98852.50;5064390;28;20386;-84
2022/04/06 13:02:27;;;;;;;6.57;3.20;;;;;;;11.05;64.52;98846.13;5065104;28;20057;-84
2022/04/06 13:04:59;;;;;;;4.03;3.55;;;;;;;11.13;64.89;98842.34;5073182;28;20048;-85
2022/04/06 13:07:30;;;;;;;5.18;3.55;;;;;;;11.11;64.49;98842.72;5067994;28;20055;-84
2022/04/06 13:10:01;;;;;;;4.75;3.63;;;;;;;10.97;65.05;98831.97;5069046;28;20633;-83
2022/04/06 13:12:31;;;;;;;4.75;3.70;;;;;;;11.28;64.42;98829.59;5064821;28;20048;-80
2022/04/06 13:15:02;;;;;;;6.28;3.45;;;;;;;11.27;64.52;98836.31;5065190;28;20061;-78
2022/04/06 13:17:31;;;;;;;6.03;3.60;;;;;;;11.44;64.38;98832.38;5066891;28;20086;-79
2022/04/06 13:20:04;;;;;;;6.15;3.33;;;;;;;11.48;63.32;98830.47;5070418;28;21371;-80
2022/04/06 13:22:33;;;;;;;6.03;3.58;;;;;;;11.43;62.94;98825.19;5066864;28;20052;-83
2022/04/06 13:25:01;;;;;;;7.43;4.28;;;;;;;11.48;64.88;98824.91;5060250;28;20413;-83
2022/04/06 13:27:31;;;;;;;4.85;4.43;;;;;;;11.31;66.29;98809.34;5062632;28;20072;-81
2022/04/06 13:30:01;;;;;;;5.35;4.13;;;;;;;11.10;66.72;98815.19;5066109;28;20052;-81
2022/04/06 13:32:31;;;;;;;6.65;4.63;;;;;;;11.04;67.55;98813.84;5062856;28;20512;-83
2022/04/06 13:35:01;;;;;;;6.88;4.38;;;;;;;11.00;68.16;98816.53;5073830;28;20571;-82
2022/04/06 13:37:30;;;;;;;6.40;4.65;;;;;;;11.03;69.91;98801.91;5065896;28;20053;-80
2022/04/06 13:39:58;;;;;;;8.35;3.92;;;;;;;10.84;69.25;98804.56;5067627;28;20067;-81
2022/04/06 13:42:26;;;;;;;5.57;3.63;;;;;;;10.67;71.75;98809.31;5064586;28;20056;-82
2022/04/06 13:44:53;;;;;;;7.75;4.60;;;;;;;10.56;72.80;98802.59;5065468;28;20405;-82
2022/04/06 13:47:23;;;;;;;6.75;4.93;;;;;;;10.57;74.50;98807.84;5067673;28;20048;-81
2022/04/06 13:49:51;;;;;;;5.15;4.10;;;;;;;10.61;74.63;98805.16;5064409;28;20070;-81
2022/04/06 13:52:21;;;;;;;5.85;4.32;;;;;;;10.49;75.21;98797.66;5064102;28;20420;-82
2022/04/06 13:54:52;;;;;;;6.15;4.20;;;;;;;10.43;75.26;98792.72;5064287;28;20056;-81
2022/04/06 13:57:22;;;;;;;6.78;3.90;;;;;;;10.40;76.35;98782.31;5072438;28;20067;-82
2022/04/06 13:59:49;;;;;;;4.78;3.50;;;;;;;10.32;76.55;98787.66;5070884;28;20059;-81
2022/04/06 14:02:17;;;;;;;5.18;2.95;;;;;;;10.35;75.57;98792.53;5064160;28;20424;-82
2022/04/06 14:04:45;;;;;;;3.45;2.70;;;;;;;10.26;75.43;98772.34;5067852;28;20045;-82
2022/04/06 14:07:12;;;;;;;5.68;3.28;;;;;;;10.43;75.93;98765.69;5073245;28;20051;-82
2022/04/06 14:09:40;;;;;;;4.65;2.38;;;;;;;10.52;77.08;98758.00;5070115;28;20056;-81
2022/04/06 14:12:14;;;;;;;4.72;2.35;;;;;;;10.71;74.27;98751.72;5063163;28;20068;-82
2022/04/06 14:14:41;;;;;;;2.97;1.80;;;;;;;10.95;73.09;98741.59;5072547;28;20064;-82
2022/04/06 14:17:12;;;;;;;5.03;2.03;;;;;;;10.95;72.46;98736.81;5076782;28;20752;-82
2022/04/06 14:19:40;;;;;;;4.28;2.17;;;;;;;10.99;72.86;98736.13;5074796;28;20063;-82
2022/04/06 14:22:09;;;;;;;4.45;1.73;;;;;;;11.06;71.15;98737.06;5069620;28;20049;-83
2022/04/06 14:25:14;;;;;;;4.00;2.00;;;;;;;10.87;71.76;98743.38;5068799;28;20044;-82
2022/04/06 14:27:24;;;;;;;4.55;2.13;;;;;;;11.03;70.95;98726.66;5065296;28;20052;-82
2022/04/06 14:29:54;;;;;;;3.78;2.00;;;;;;;11.11;70.11;98730.44;5071286;28;20061;-83
2022/04/06 14:32:21;;;;;;;;;;;;;;;11.08;69.60;98723.59;5073088;28;20053;-82
2022/04/06 14:34:50;;;;;;;4.50;1.90;;;;;;;11.32;69.79;98711.44;5070927;28;19921;-83
2022/04/06 14:37:19;;;;;;;3.35;1.85;;;;;;;11.44;69.76;98718.88;5072850;28;20055;-83
2022/04/06 14:39:49;;;;;;;;;;;;;;;11.35;69.32;98693.97;5065244;28;20496;-83
2022/04/06 14:42:16;;;;;;;3.15;1.75;;;;;;;11.47;69.13;98693.06;5068020;28;19931;-82
2022/04/06 14:44:45;;;;;;;6.70;1.98;;;;;;;11.61;67.92;98695.34;5072017;28;20045;-83
2022/04/06 14:47:12;;;;;;;4.47;1.90;;;;;;;11.61;67.39;98692.53;5064987;28;20056;-83
2022/04/06 14:49:49;;;;;;;2.83;1.70;;;;;;;11.90;67.29;98690.41;5065293;28;20051;-84
2022/04/06 14:52:24;;;;;;;2.85;1.88;;;;;;;11.99;66.99;98699.38;5070119;28;20056;-85
2022/04/06 14:54:52;;;;;;;2.95;1.80;;;;;;;12.01;66.21;98680.28;5063251;28;20171;-85
2022/04/06 14:57:19;;;;;;;3.17;1.70;;;;;;;11.84;65.48;98681.47;5070241;28;20048;-86
2022/04/06 14:59:47;;;;;;;2.65;1.70;;;;;;;11.92;65.24;98685.25;5080425;28;20052;-85
2022/04/06 15:02:17;;;;;;;2.55;1.60;;;;;;;11.69;64.99;98683.16;5081638;28;20044;-83
2022/04/06 15:04:44;;;;;;;2.97;1.70;;;;;;;11.71;65.30;98668.88;5079227;28;20060;-85
2022/04/06 15:07:17;;;;;;;3.03;1.83;;;;;;;11.76;66.25;98654.63;5079614;28;20040;-81
2022/04/06 15:09:46;;;;;;;3.95;1.98;;;;;;;11.79;63.51;98662.25;5082252;28;20064;-83
2022/04/06 15:12:14;;;;;;;2.67;1.77;;;;;;;11.75;63.43;98662.19;5074020;28;20051;-83
2022/04/06 15:14:42;;;;;;;3.38;1.63;;;;;;;11.98;63.99;98655.91;5075973;28;20052;-82
2022/04/06 15:17:09;;;;;;;2.42;1.75;;;;;;;11.98;63.85;98653.91;5081792;28;20059;-82
2022/04/06 15:19:36;;;;;;;4.28;1.83;;;;;;;12.13;62.47;98654.19;5061883;28;20060;-83
2022/04/06 15:22:04;;;;;;;6.05;1.80;;;;;;;12.09;62.09;98650.50;5070252;28;20055;-83
2022/04/06 15:24:32;;;;;;;3.85;1.80;;;;;;;11.95;61.26;98640.69;5080719;28;20406;-82
2022/04/06 15:27:00;;;;;;;3.03;1.50;;;;;;;12.02;61.92;98647.59;5080440;28;20396;-81
2022/04/06 15:29:27;;;;;;;3.30;2.00;;;;;;;12.07;62.22;98636.13;5084980;28;20052;-81
2022/04/06 15:31:55;;;;;;;3.30;1.80;;;;;;;11.97;61.62;98632.78;5086630;28;20420;-84
2022/04/06 15:37:23;;;;;;;4.35;1.88;;;;;;;11.69;62.61;98623.78;5040977;28;20050;-85
2022/04/06 15:39:53;;;;;;;4.18;1.73;;;;;;;11.92;61.88;98632.25;5085892;28;20052;-83
2022/04/06 15:42:25;;;;;;;6.53;1.95;;;;;;;11.97;62.09;98624.41;5087619;28;20036;-82
2022/04/06 15:44:55;;;;;;;3.63;1.88;;;;;;;11.97;62.01;98631.97;5080597;28;20171;-81
2022/04/06 15:47:22;;;;;;;;;;;;;;;12.23;61.27;98625.66;5074299;28;20060;-83
2022/04/06 15:49:53;;;;;;;4.55;1.70;;;;;;;12.12;61.24;98630.25;5085439;28;19920;-85
2022/04/06 15:52:21;;;;;;;3.78;1.85;;;;;;;12.10;61.37;98630.63;5084506;28;20174;-83
2022/04/06 15:54:51;;;;;;;3.65;1.70;;;;;;;12.05;60.52;98622.53;5084894;28;20526;-83
2022/04/06 15:57:22;;;;;;;4.80;2.20;;;;;;;11.93;61.21;98622.72;5081794;28;20428;-84